Time;durP1;ratioP1;P1;durP2;ratioP2;P2;SDS_P1;SDS_P2;PMS_P1;PMS_P2;Temp;Humidity;BMP_temperature;BMP_pressure;BME280_temperature;BME280_humidity;BME280_pressure;Samples;Min_cycle;Max_cycle;Signal;HPM_P1;HPM_P2
2021/06/03 00:01:04;;;;;;;16.57;9.67;;;14.50;99.90;;;;;;4993072;28;20238;-89
2021/06/03 00:03:31;;;;;;;19.87;8.57;;;14.50;99.90;;;;;;5021366;28;20309;-88
2021/06/03 00:06:00;;;;;;;13.10;7.97;;;14.50;99.90;;;;;;5027626;28;20213;-88
2021/06/03 00:08:28;;;;;;;9.60;8.13;;;14.60;99.90;;;;;;5013360;28;20210;-88
2021/06/03 00:11:06;;;;;;;10.80;7.70;;;14.50;99.90;;;;;;5022028;28;20714;-87
2021/06/03 00:13:35;;;;;;;10.13;7.40;;;14.50;99.90;;;;;;5023744;28;20222;-88
2021/06/03 00:16:07;;;;;;;14.40;8.27;;;14.40;99.90;;;;;;4999921;28;20977;-88
2021/06/03 00:18:32;;;;;;;16.17;8.77;;;14.40;99.90;;;;;;5000038;28;20301;-88
2021/06/03 00:20:58;;;;;;;12.73;7.97;;;14.40;99.90;;;;;;5008143;28;20193;-88
2021/06/03 00:23:25;;;;;;;12.67;8.33;;;14.40;99.90;;;;;;4994406;28;20196;-88
2021/06/03 00:25:51;;;;;;;9.33;6.80;;;14.40;99.90;;;;;;4993063;28;20307;-86
2021/06/03 00:28:17;;;;;;;10.53;7.50;;;14.30;99.90;;;;;;5003026;28;20265;-86
2021/06/03 00:30:43;;;;;;;10.10;6.47;;;14.20;99.90;;;;;;5009346;28;20230;-88
2021/06/03 00:33:09;;;;;;;11.93;8.30;;;14.20;99.90;;;;;;5006190;28;20262;-88
2021/06/03 00:35:36;;;;;;;10.73;7.83;;;14.20;99.90;;;;;;5010572;28;20319;-87
2021/06/03 00:38:02;;;;;;;9.03;6.77;;;14.20;99.90;;;;;;5016818;28;20309;-88
2021/06/03 00:40:29;;;;;;;11.87;7.10;;;14.10;99.90;;;;;;5003061;28;20227;-86
2021/06/03 00:42:55;;;;;;;12.87;8.00;;;14.00;99.90;;;;;;4992640;28;20306;-87
2021/06/03 00:45:27;;;;;;;16.90;9.97;;;14.10;99.90;;;;;;4997014;28;20227;-87
2021/06/03 00:47:53;;;;;;;14.07;9.43;;;14.30;99.90;;;;;;5010518;28;20249;-87
2021/06/03 00:50:24;;;;;;;16.00;11.03;;;14.30;99.90;;;;;;5020894;28;21070;-89
2021/06/03 00:52:50;;;;;;;18.10;10.07;;;14.40;99.90;;;;;;5014144;28;20211;-88
2021/06/03 00:55:16;;;;;;;15.27;10.83;;;14.50;99.90;;;;;;5000714;28;20219;-88
2021/06/03 00:57:42;;;;;;;16.37;10.63;;;14.50;99.90;;;;;;4997174;28;20227;-87
2021/06/03 01:00:14;;;;;;;17.03;10.70;;;14.40;99.90;;;;;;4994524;28;20300;-89
2021/06/03 01:02:40;;;;;;;16.63;10.03;;;14.40;99.90;;;;;;4999415;28;20191;-88
2021/06/03 01:05:12;;;;;;;17.50;10.93;;;14.30;99.90;;;;;;5019054;28;20220;-88
2021/06/03 01:07:38;;;;;;;16.90;9.47;;;14.30;99.90;;;;;;4996241;28;20297;-88
2021/06/03 01:10:12;;;;;;;15.50;10.10;;;14.20;99.90;;;;;;5010416;28;20905;-87
2021/06/03 01:12:45;;;;;;;12.23;9.03;;;14.20;99.90;;;;;;5014667;28;20321;-86
2021/06/03 01:15:12;;;;;;;12.90;9.67;;;14.20;99.90;;;;;;5000887;28;20234;-88
2021/06/03 01:17:38;;;;;;;15.70;12.27;;;14.30;99.90;;;;;;5034490;28;20747;-88
2021/06/03 01:20:06;;;;;;;16.90;11.37;;;14.30;99.90;;;;;;4978945;28;20339;-87
2021/06/03 01:22:51;;;;;;;18.30;11.57;;;14.40;99.90;;;;;;4988572;28;20231;-87
2021/06/03 01:25:19;;;;;;;14.80;11.00;;;14.40;99.90;;;;;;4996368;28;20322;-87
2021/06/03 01:27:45;;;;;;;17.23;10.17;;;14.40;99.90;;;;;;5016394;28;20249;-87
2021/06/03 01:30:24;;;;;;;15.33;10.30;;;14.40;99.90;;;;;;5011670;28;21361;-87
2021/06/03 01:32:57;;;;;;;14.27;10.27;;;14.40;99.90;;;;;;5010017;28;20982;-88
2021/06/03 01:35:28;;;;;;;16.10;11.73;;;14.40;99.90;;;;;;4996832;28;20236;-90
2021/06/03 01:37:54;;;;;;;12.40;9.33;;;14.30;99.90;;;;;;5003961;28;20215;-87
2021/06/03 01:40:22;;;;;;;16.60;11.57;;;14.30;99.90;;;;;;5012303;28;20242;-90
2021/06/03 01:42:48;;;;;;;13.00;9.90;;;14.30;99.90;;;;;;5003136;28;20230;-88
2021/06/03 01:45:15;;;;;;;11.80;9.47;;;14.30;99.90;;;;;;5015190;28;20261;-88
2021/06/03 01:47:42;;;;;;;10.27;8.90;;;14.20;99.90;;;;;;5024653;28;20703;-88
2021/06/03 01:50:09;;;;;;;11.90;9.87;;;14.10;99.90;;;;;;5013199;28;20234;-88
2021/06/03 01:52:35;;;;;;;14.97;10.00;;;14.20;99.90;;;;;;5032281;28;20596;-88
2021/06/03 01:55:02;;;;;;;18.67;11.50;;;14.30;99.90;;;;;;5012670;28;20225;-88
2021/06/03 01:57:28;;;;;;;15.83;10.10;;;14.40;99.90;;;;;;5022252;28;20258;-88
2021/06/03 01:59:54;;;;;;;15.03;9.60;;;14.50;99.90;;;;;;5004387;28;20222;-87
2021/06/03 02:02:20;;;;;;;13.37;10.50;;;14.50;99.90;;;;;;5031591;28;20349;-88
2021/06/03 02:04:46;;;;;;;11.43;9.43;;;14.60;99.90;;;;;;5027396;28;20597;-87
2021/06/03 02:07:13;;;;;;;18.47;11.43;;;14.70;99.90;;;;;;5002512;28;20726;-87
2021/06/03 02:09:39;;;;;;;21.13;11.00;;;14.80;99.90;;;;;;4998331;28;20230;-87
2021/06/03 02:12:08;;;;;;;13.83;10.50;;;14.80;99.90;;;;;;5011287;28;20190;-87
2021/06/03 02:14:36;;;;;;;12.57;10.23;;;14.80;99.90;;;;;;5013753;28;20198;-87
2021/06/03 02:17:12;;;;;;;17.77;10.57;;;14.80;99.90;;;;;;5026156;28;20226;-86
2021/06/03 02:19:46;;;;;;;15.33;9.90;;;14.80;99.90;;;;;;4993962;28;20224;-87
2021/06/03 02:22:12;;;;;;;15.83;10.43;;;14.70;99.90;;;;;;5004086;28;20223;-88
2021/06/03 02:24:38;;;;;;;13.53;10.00;;;14.70;99.90;;;;;;5007890;28;20228;-89
2021/06/03 02:27:06;;;;;;;14.40;9.87;;;14.60;99.90;;;;;;4996586;28;20248;-89
2021/06/03 02:29:33;;;;;;;13.73;9.13;;;14.60;99.90;;;;;;5030204;28;20183;-88
2021/06/03 02:31:59;;;;;;;14.97;10.10;;;14.50;99.90;;;;;;5013422;28;20750;-88
2021/06/03 02:34:25;;;;;;;11.90;9.27;;;14.50;99.90;;;;;;5024501;28;20220;-87
2021/06/03 02:36:51;;;;;;;15.83;10.50;;;14.40;99.90;;;;;;4991120;28;20632;-90
2021/06/03 02:39:17;;;;;;;12.77;10.00;;;14.40;99.90;;;;;;4996064;28;20229;-88
2021/06/03 02:41:43;;;;;;;16.23;10.13;;;14.30;99.90;;;;;;4995324;28;20192;-87
2021/06/03 02:44:09;;;;;;;11.63;9.30;;;14.30;99.90;;;;;;5000482;28;20338;-88
2021/06/03 02:46:34;;;;;;;12.23;9.27;;;14.30;99.90;;;;;;5026820;28;20215;-88
2021/06/03 02:49:00;;;;;;;12.30;9.20;;;14.20;99.90;;;;;;5020954;28;20237;-90
2021/06/03 02:51:26;;;;;;;12.40;9.10;;;14.10;99.90;;;;;;5005649;28;20681;-89
2021/06/03 02:53:52;;;;;;;13.93;10.73;;;14.10;99.90;;;;;;4992687;28;20188;-89
2021/06/03 02:56:19;;;;;;;20.57;10.50;;;14.20;99.90;;;;;;5023937;28;20659;-88
2021/06/03 02:58:45;;;;;;;15.17;10.10;;;14.20;99.90;;;;;;4997986;28;20230;-89
2021/06/03 03:01:11;;;;;;;15.77;9.87;;;14.20;99.90;;;;;;4997030;28;20862;-87
2021/06/03 03:03:37;;;;;;;15.70;12.07;;;14.20;99.90;;;;;;5010633;28;20230;-87
2021/06/03 03:06:04;;;;;;;12.93;9.83;;;14.30;99.90;;;;;;5009140;28;20562;-87
2021/06/03 03:08:30;;;;;;;16.10;11.00;;;14.30;99.90;;;;;;5012662;28;20251;-87
2021/06/03 03:10:59;;;;;;;17.37;11.60;;;14.40;99.90;;;;;;5016601;28;20231;-88
2021/06/03 03:13:24;;;;;;;15.07;10.33;;;14.50;99.90;;;;;;5018737;28;20239;-88
2021/06/03 03:15:51;;;;;;;13.17;10.17;;;14.50;99.90;;;;;;4993071;28;20352;-87
2021/06/03 03:18:17;;;;;;;16.83;12.30;;;14.40;99.90;;;;;;5008271;28;20310;-88
2021/06/03 03:20:43;;;;;;;16.83;11.17;;;14.40;99.90;;;;;;4992462;28;20184;-89
2021/06/03 03:23:10;;;;;;;15.97;11.70;;;14.50;99.90;;;;;;5011723;28;20823;-88
2021/06/03 03:25:38;;;;;;;15.17;10.73;;;14.60;99.90;;;;;;4995853;28;20232;-87
2021/06/03 03:28:05;;;;;;;17.47;11.73;;;14.60;99.90;;;;;;5015223;28;20227;-87
2021/06/03 03:30:41;;;;;;;15.97;11.40;;;14.70;99.90;;;;;;5001228;28;20235;-89
2021/06/03 03:33:11;;;;;;;16.33;11.77;;;14.80;99.90;;;;;;5004041;28;20222;-87
2021/06/03 03:35:37;;;;;;;15.70;11.37;;;14.90;99.90;;;;;;5022010;28;20234;-89
2021/06/03 03:38:04;;;;;;;17.93;11.20;;;15.00;99.90;;;;;;5014319;28;20226;-88
2021/06/03 03:40:30;;;;;;;16.90;11.23;;;15.10;99.90;;;;;;5000859;28;20223;-87
2021/06/03 03:42:56;;;;;;;20.87;11.33;;;15.10;99.90;;;;;;5012591;28;20229;-89
2021/06/03 03:45:24;;;;;;;15.17;10.43;;;15.20;99.90;;;;;;5028483;28;20227;-90
2021/06/03 03:47:51;;;;;;;15.17;10.80;;;15.20;99.90;;;;;;5019210;28;20234;-89
2021/06/03 03:50:17;;;;;;;19.97;10.73;;;15.30;99.90;;;;;;5011838;28;20187;-89
2021/06/03 03:52:44;;;;;;;12.20;9.57;;;15.40;99.90;;;;;;5000657;28;20211;-88
2021/06/03 03:55:11;;;;;;;13.93;9.37;;;15.40;99.90;;;;;;5000388;28;20238;-89
2021/06/03 03:57:37;;;;;;;14.37;10.67;;;15.50;99.90;;;;;;5002558;28;20227;-87
2021/06/03 04:00:06;;;;;;;11.80;9.33;;;15.50;99.90;;;;;;5025644;28;20182;-88
2021/06/03 04:02:32;;;;;;;12.90;10.33;;;15.70;99.90;;;;;;4992581;28;20195;-89
2021/06/03 04:04:58;;;;;;;13.50;9.07;;;15.80;99.90;;;;;;5006334;28;20222;-88
2021/06/03 04:07:23;;;;;;;15.77;9.40;;;15.80;99.90;;;;;;4986260;28;20212;-86
2021/06/03 04:09:49;;;;;;;13.07;10.57;;;15.80;99.90;;;;;;5002307;28;20366;-91
2021/06/03 04:12:15;;;;;;;14.40;9.17;;;15.90;99.90;;;;;;4992346;28;20223;-88
2021/06/03 04:14:41;;;;;;;14.40;9.30;;;16.00;99.90;;;;;;5002080;28;20323;-90
2021/06/03 04:17:07;;;;;;;13.43;9.40;;;16.00;99.90;;;;;;4999272;28;20224;-91
2021/06/03 04:19:32;;;;;;;13.23;9.87;;;16.20;99.90;;;;;;5002812;28;20253;-89
2021/06/03 04:21:58;;;;;;;12.47;9.17;;;16.30;99.90;;;;;;5013759;28;20219;-90
2021/06/03 04:24:25;;;;;;;12.13;8.87;;;16.50;99.90;;;;;;5002997;28;20218;-91
2021/06/03 04:26:51;;;;;;;12.37;9.03;;;16.60;99.90;;;;;;5013561;28;20534;-91
2021/06/03 04:29:22;;;;;;;13.10;8.70;;;16.60;99.90;;;;;;5046313;28;20237;-90
2021/06/03 04:31:48;;;;;;;15.47;9.30;;;16.80;99.90;;;;;;5030194;28;20226;-90
2021/06/03 04:34:14;;;;;;;17.17;9.07;;;16.90;99.90;;;;;;5028787;28;20818;-91
2021/06/03 04:36:40;;;;;;;12.93;9.07;;;17.00;99.90;;;;;;5032270;28;20235;-93
2021/06/03 04:39:06;;;;;;;13.30;8.83;;;17.20;99.90;;;;;;4999300;28;20196;-92
2021/06/03 04:41:31;;;;;;;13.27;9.20;;;17.40;99.90;;;;;;5036048;28;20198;-90
2021/06/03 04:43:57;;;;;;;11.60;9.27;;;17.60;99.90;;;;;;5013575;28;20714;-89
2021/06/03 04:46:23;;;;;;;11.90;8.10;;;17.80;99.90;;;;;;4993365;28;20330;-90
2021/06/03 04:48:49;;;;;;;10.87;8.80;;;17.90;99.90;;;;;;5017241;28;20237;-90
2021/06/03 04:51:14;;;;;;;14.33;8.33;;;17.90;99.90;;;;;;5020693;28;20225;-88
2021/06/03 04:53:40;;;;;;;11.33;8.70;;;18.10;99.90;;;;;;5021675;28;20184;-91
2021/06/03 04:56:06;;;;;;;12.37;9.37;;;18.30;99.90;;;;;;5035550;28;20222;-87
2021/06/03 04:58:32;;;;;;;12.93;8.63;;;18.50;99.90;;;;;;5023098;28;20324;-91
2021/06/03 05:00:58;;;;;;;11.03;8.07;;;18.60;99.90;;;;;;4999775;28;20596;-90
2021/06/03 05:03:23;;;;;;;10.53;8.10;;;18.60;99.90;;;;;;5013798;28;20935;-91
2021/06/03 05:05:49;;;;;;;14.17;9.07;;;18.80;99.90;;;;;;5028765;28;20182;-91
2021/06/03 05:08:16;;;;;;;11.73;8.57;;;19.00;99.90;;;;;;5028185;28;20210;-91
2021/06/03 05:10:44;;;;;;;12.03;8.73;;;19.00;99.90;;;;;;5017164;28;20280;-91
2021/06/03 05:13:10;;;;;;;11.90;9.13;;;19.20;99.90;;;;;;5014207;28;20227;-90
2021/06/03 05:15:36;;;;;;;13.63;8.10;;;19.40;99.90;;;;;;5010588;28;20278;-90
2021/06/03 05:18:02;;;;;;;9.57;8.20;;;19.30;99.90;;;;;;4996895;28;20200;-91
2021/06/03 05:20:29;;;;;;;12.07;8.83;;;19.40;99.90;;;;;;5013932;28;20198;-90
2021/06/03 05:22:58;;;;;;;11.73;7.40;;;19.80;99.90;;;;;;5014028;28;20321;-89
2021/06/03 05:25:26;;;;;;;9.90;7.57;;;20.90;99.90;;;;;;5018718;28;20203;-89
2021/06/03 05:27:53;;;;;;;12.47;8.33;;;21.70;99.90;;;;;;5035734;28;20230;-88
2021/06/03 05:30:23;;;;;;;10.07;7.87;;;21.90;99.90;;;;;;5021601;28;20227;-89
2021/06/03 05:32:49;;;;;;;10.27;7.53;;;21.70;99.90;;;;;;5024833;28;20199;-93
2021/06/03 05:35:21;;;;;;;11.33;8.47;;;21.60;99.90;;;;;;4999383;28;20231;-87
2021/06/03 05:37:47;;;;;;;10.17;8.53;;;21.30;99.90;;;;;;5005372;28;20676;-88
2021/06/03 05:40:17;;;;;;;12.37;8.77;;;21.30;99.90;;;;;;5010723;28;21007;-88
2021/06/03 05:42:44;;;;;;;10.93;8.13;;;21.00;99.90;;;;;;4994402;28;20223;-89
2021/06/03 05:45:11;;;;;;;12.83;9.07;;;20.80;99.90;;;;;;4998365;28;20223;-90
2021/06/03 05:47:37;;;;;;;12.50;8.80;;;20.80;99.90;;;;;;5031083;28;20219;-88
2021/06/03 05:50:05;;;;;;;14.37;9.17;;;20.80;99.90;;;;;;5026335;28;20223;-89
2021/06/03 05:52:31;;;;;;;12.67;9.13;;;20.60;99.90;;;;;;4996535;28;20426;-88
2021/06/03 05:54:57;;;;;;;11.63;8.83;;;20.60;99.90;;;;;;4984256;28;20420;-89
2021/06/03 05:57:23;;;;;;;17.73;9.47;;;20.80;99.90;;;;;;4999078;28;20798;-89
2021/06/03 05:59:49;;;;;;;18.33;9.03;;;20.80;99.90;;;;;;5022034;28;20547;-88
2021/06/03 06:02:20;;;;;;;14.33;9.40;;;20.60;99.90;;;;;;5010016;28;20199;-89
2021/06/03 06:07:32;;;;;;;12.13;8.63;;;20.40;99.90;;;;;;5005348;28;20227;-92
2021/06/03 06:09:58;;;;;;;13.83;9.77;;;20.40;99.90;;;;;;4984155;28;20235;-91
2021/06/03 06:12:24;;;;;;;10.97;9.87;;;20.40;99.90;;;;;;5001588;28;20223;-92
2021/06/03 06:14:50;;;;;;;13.03;9.23;;;20.70;99.90;;;;;;5011555;28;20246;-91
2021/06/03 06:17:18;;;;;;;17.27;9.70;;;20.80;99.90;;;;;;5022867;28;20190;-92
2021/06/03 06:19:44;;;;;;;17.57;9.47;;;20.80;99.90;;;;;;5027467;28;20247;-91
2021/06/03 06:22:10;;;;;;;12.30;8.80;;;20.80;99.90;;;;;;5003755;28;20692;-88
2021/06/03 06:24:36;;;;;;;11.60;8.67;;;20.80;99.90;;;;;;5012792;28;20237;-88
2021/06/03 06:27:02;;;;;;;13.40;8.80;;;20.80;99.90;;;;;;5010071;28;20186;-89
2021/06/03 06:29:28;;;;;;;13.77;8.77;;;20.90;99.90;;;;;;4993788;28;20199;-92
2021/06/03 06:31:54;;;;;;;11.77;9.20;;;21.20;99.90;;;;;;5000000;28;20270;-90
2021/06/03 06:34:20;;;;;;;14.43;9.57;;;21.40;99.90;;;;;;5006772;28;20276;-92
2021/06/03 06:36:46;;;;;;;10.93;9.60;;;21.40;99.90;;;;;;4992763;28;20314;-91
2021/06/03 06:39:12;;;;;;;11.87;8.30;;;21.40;99.90;;;;;;4998164;28;20222;-90
2021/06/03 06:41:41;;;;;;;13.50;9.60;;;21.30;99.90;;;;;;5017688;28;20198;-90
2021/06/03 06:44:07;;;;;;;12.83;8.17;;;21.60;99.90;;;;;;5014016;28;20234;-89
2021/06/03 06:46:33;;;;;;;10.20;8.63;;;21.90;99.90;;;;;;5016089;28;20251;-93
2021/06/03 06:48:59;;;;;;;11.53;8.27;;;21.90;99.90;;;;;;5000932;28;20247;-90
2021/06/03 06:51:25;;;;;;;12.10;8.03;;;21.70;99.90;;;;;;5030746;28;20226;-90
2021/06/03 06:53:51;;;;;;;12.87;8.90;;;21.70;99.90;;;;;;5029002;28;20195;-92
2021/06/03 06:56:17;;;;;;;10.57;8.47;;;21.60;99.90;;;;;;5010635;28;20862;-90
2021/06/03 06:58:43;;;;;;;12.63;8.57;;;21.60;99.90;;;;;;5007933;28;20311;-89
2021/06/03 07:01:08;;;;;;;11.67;7.73;;;21.40;99.90;;;;;;5018468;28;20233;-90
2021/06/03 07:03:34;;;;;;;13.17;8.20;;;21.10;99.90;;;;;;5015946;28;20219;-90
2021/06/03 07:06:00;;;;;;;10.10;8.10;;;21.00;99.90;;;;;;5001756;28;20184;-91
2021/06/03 07:08:26;;;;;;;8.40;7.20;;;20.80;99.90;;;;;;5015059;28;20207;-91
2021/06/03 07:10:54;;;;;;;16.40;10.10;;;20.80;99.90;;;;;;5018502;28;20221;-90
2021/06/03 07:13:20;;;;;;;13.40;8.57;;;20.70;99.90;;;;;;4998266;28;20212;-91
2021/06/03 07:15:46;;;;;;;12.60;8.53;;;20.80;99.90;;;;;;4991235;28;20224;-91
2021/06/03 07:18:12;;;;;;;11.93;8.87;;;20.80;99.90;;;;;;4995412;28;20377;-92
2021/06/03 07:20:38;;;;;;;12.87;8.67;;;20.70;99.90;;;;;;5014213;28;20214;-89
2021/06/03 07:23:05;;;;;;;14.60;9.77;;;20.80;99.90;;;;;;5029443;28;20223;-88
2021/06/03 07:25:32;;;;;;;13.73;8.93;;;20.60;99.90;;;;;;5012170;28;21138;-88
2021/06/03 07:27:58;;;;;;;11.27;8.53;;;20.60;99.90;;;;;;5008998;28;20238;-87
2021/06/03 07:30:25;;;;;;;11.73;9.90;;;20.70;99.90;;;;;;4997925;28;20278;-90
2021/06/03 07:32:52;;;;;;;12.90;9.47;;;20.80;99.90;;;;;;5020357;28;20182;-89
2021/06/03 07:35:19;;;;;;;15.63;9.77;;;21.10;99.90;;;;;;5013726;28;20350;-88
2021/06/03 07:37:47;;;;;;;14.83;9.27;;;21.30;99.90;;;;;;4995381;28;20224;-91
2021/06/03 07:40:16;;;;;;;10.93;8.50;;;21.10;99.90;;;;;;5007638;28;20235;-88
2021/06/03 07:42:42;;;;;;;12.07;9.67;;;21.10;99.90;;;;;;5000347;28;20325;-90
2021/06/03 07:45:11;;;;;;;17.57;9.43;;;21.30;99.90;;;;;;5026518;28;20223;-90
2021/06/03 07:47:39;;;;;;;14.80;10.23;;;21.20;99.90;;;;;;5020727;28;20294;-89
2021/06/03 07:50:06;;;;;;;13.50;10.27;;;21.60;99.90;;;;;;4996261;28;20224;-89
2021/06/03 07:52:33;;;;;;;20.77;9.80;;;21.90;99.90;;;;;;4994922;28;20251;-90
2021/06/03 07:54:59;;;;;;;17.20;10.57;;;21.80;99.90;;;;;;5005552;28;20247;-90
2021/06/03 07:57:25;;;;;;;15.80;9.23;;;21.80;99.90;;;;;;4998133;28;20673;-91
2021/06/03 07:59:51;;;;;;;13.67;9.87;;;21.90;99.90;;;;;;4988602;28;20271;-90
2021/06/03 08:02:17;;;;;;;10.07;8.47;;;22.00;99.90;;;;;;5009287;28;20219;-91
2021/06/03 08:04:42;;;;;;;14.63;9.27;;;21.80;99.90;;;;;;5021312;28;20222;-90
2021/06/03 08:07:08;;;;;;;16.70;9.47;;;22.10;99.90;;;;;;4981854;28;20693;-88
2021/06/03 08:09:34;;;;;;;12.53;10.07;;;22.20;99.90;;;;;;4989859;28;20235;-90
2021/06/03 08:12:00;;;;;;;20.48;10.32;;;22.00;99.90;;;;;;4999039;28;20870;-89
2021/06/03 08:14:25;;;;;;;12.70;9.63;;;22.50;99.90;;;;;;5007189;28;20199;-89
2021/06/03 08:16:51;;;;;;;14.77;9.63;;;22.80;99.90;;;;;;5026539;28;20255;-90
2021/06/03 08:19:20;;;;;;;12.73;9.07;;;22.70;99.90;;;;;;5019054;28;20987;-93
2021/06/03 08:21:46;;;;;;;17.03;10.07;;;22.90;99.90;;;;;;5011493;28;20301;-93
2021/06/03 08:24:12;;;;;;;14.32;10.05;;;22.60;99.90;;;;;;4994084;28;20882;-93
2021/06/03 08:26:40;;;;;;;16.43;9.80;;;22.50;99.90;;;;;;5028227;28;20673;-92
2021/06/03 08:29:05;;;;;;;12.53;9.27;;;22.70;99.90;;;;;;5000065;28;20231;-92
2021/06/03 08:31:31;;;;;;;13.75;9.27;;;22.90;99.90;;;;;;5002455;28;20223;-91
2021/06/03 08:34:01;;;;;;;15.45;9.85;;;22.80;99.90;;;;;;5006552;28;20553;-90
2021/06/03 08:36:27;;;;;;;13.32;9.77;;;22.90;99.90;;;;;;4989916;28;20231;-91
2021/06/03 08:38:54;;;;;;;14.77;10.20;;;22.80;99.90;;;;;;5004044;28;20559;-91
2021/06/03 08:41:19;;;;;;;12.80;10.07;;;23.10;99.90;;;;;;5008516;28;20278;-89
2021/06/03 08:43:46;;;;;;;15.73;9.70;;;23.10;99.90;;;;;;5019710;28;20220;-92
2021/06/03 08:46:12;;;;;;;15.77;9.70;;;23.10;99.90;;;;;;4988552;28;20216;-88
2021/06/03 08:48:37;;;;;;;18.25;10.57;;;23.50;99.90;;;;;;4992242;28;21166;-92
2021/06/03 08:51:05;;;;;;;14.93;9.40;;;23.70;99.90;;;;;;5009437;28;20180;-90
2021/06/03 08:53:32;;;;;;;20.88;11.15;;;23.60;99.90;;;;;;5012588;28;20199;-91
2021/06/03 08:59:01;;;;;;;16.50;11.48;;;24.30;99.90;;;;;;4989127;28;20222;-90
2021/06/03 09:01:30;;;;;;;18.00;11.02;;;24.70;99.90;;;;;;5007349;28;20227;-90
2021/06/03 09:03:57;;;;;;;17.67;9.95;;;25.30;99.90;;;;;;5007327;28;21301;-90
2021/06/03 09:06:24;;;;;;;18.20;10.70;;;24.80;99.90;;;;;;4990288;28;20447;-91
2021/06/03 09:08:52;;;;;;;16.10;10.32;;;24.60;99.90;;;;;;4991528;28;20207;-90
2021/06/03 09:11:19;;;;;;;13.07;9.98;;;24.80;99.90;;;;;;5012013;28;20180;-89
2021/06/03 09:13:52;;;;;;;17.70;10.30;;;25.50;99.90;;;;;;5024571;28;20226;-89
2021/06/03 09:16:29;;;;;;;18.17;11.48;;;26.60;99.90;;;;;;5011954;28;20235;-91
2021/06/03 09:19:11;;;;;;;19.60;11.18;;;28.80;99.90;;;;;;5027641;28;20214;-91
2021/06/03 09:21:44;;;;;;;16.77;8.80;;;30.20;99.90;;;;;;4994872;28;20228;-91
2021/06/03 09:24:13;;;;;;;14.98;10.00;;;29.00;99.90;;;;;;4997312;28;20361;-91
2021/06/03 09:26:45;;;;;;;12.80;9.80;;;28.40;99.90;;;;;;5022439;28;20291;-94
2021/06/03 09:29:30;;;;;;;14.55;10.48;;;29.00;99.90;;;;;;4986202;28;20258;-88
2021/06/03 09:32:17;;;;;;;12.85;10.80;;;30.80;99.90;;;;;;5021302;28;20227;-90
2021/06/03 09:34:55;;;;;;;17.92;12.13;;;31.30;99.90;;;;;;4995879;28;20224;-92
2021/06/03 09:37:21;;;;;;;21.50;12.73;;;32.00;99.90;;;;;;5021547;28;20604;-89
2021/06/03 09:39:48;;;;;;;15.32;11.82;;;30.50;99.90;;;;;;4996188;28;20230;-89
2021/06/03 09:42:20;;;;;;;16.05;12.43;;;30.50;99.90;;;;;;5009786;28;20227;-88
2021/06/03 09:44:50;;;;;;;16.73;11.65;;;30.30;99.90;;;;;;5031163;28;20187;-91
2021/06/03 09:47:18;;;;;;;16.95;12.48;;;31.30;99.90;;;;;;5010500;28;20405;-89
2021/06/03 09:49:53;;;;;;;17.02;12.65;;;30.20;99.90;;;;;;5008776;28;20688;-91
2021/06/03 09:52:21;;;;;;;17.63;12.52;;;30.30;99.90;;;;;;5009606;28;20691;-85
2021/06/03 09:54:56;;;;;;;16.65;10.88;;;30.10;99.90;;;;;;5016998;28;20215;-89
2021/06/03 09:57:30;;;;;;;21.23;14.05;;;29.70;99.90;;;;;;5023807;28;20259;-86
2021/06/03 10:00:02;;;;;;;18.15;13.60;;;27.70;99.90;;;;;;4993961;28;20188;-86
2021/06/03 10:02:33;;;;;;;17.98;12.77;;;27.10;99.90;;;;;;4995829;28;20196;-85
2021/06/03 10:04:59;;;;;;;19.83;14.57;;;26.80;99.90;;;;;;5027095;28;20311;-86
2021/06/03 10:07:31;;;;;;;18.73;13.10;;;27.00;99.90;;;;;;5017440;28;20216;-87
2021/06/03 10:10:06;;;;;;;16.90;11.93;;;28.20;99.90;;;;;;4995210;28;20547;-88
2021/06/03 10:12:45;;;;;;;19.42;12.55;;;28.90;99.90;;;;;;5000923;28;20227;-88
2021/06/03 10:15:20;;;;;;;17.58;13.27;;;28.80;99.90;;;;;;5013609;28;20824;-87
2021/06/03 10:18:00;;;;;;;14.73;12.13;;;28.20;99.90;;;;;;5028195;28;20215;-87
2021/06/03 10:20:39;;;;;;;18.17;13.20;;;28.40;99.90;;;;;;5008442;28;20219;-88
2021/06/03 10:23:09;;;;;;;18.30;12.65;;;28.70;99.90;;;;;;5019643;28;20207;-90
2021/06/03 10:25:37;;;;;;;17.10;11.13;;;28.40;99.90;;;;;;5014104;28;20223;-89
2021/06/03 10:28:10;;;;;;;19.15;12.65;;;27.90;99.90;;;;;;5002777;28;20253;-86
2021/06/03 10:30:42;;;;;;;19.73;13.48;;;28.40;99.90;;;;;;5012216;28;20297;-86
2021/06/03 10:33:19;;;;;;;24.75;14.73;;;27.60;99.90;;;;;;5028879;28;20220;-90
2021/06/03 10:35:48;;;;;;;19.38;13.82;;;27.50;99.90;;;;;;5014668;28;20233;-88
2021/06/03 10:38:55;;;;;;;19.83;13.30;;;27.80;99.90;;;;;;5104027;27;158618;-88
2021/06/03 10:41:21;;;;;;;20.08;14.18;;;27.40;99.90;;;;;;5081849;28;20648;-89
2021/06/03 10:43:46;;;;;;;20.45;13.68;;;26.70;99.90;;;;;;5067967;28;20207;-86
2021/06/03 10:46:12;;;;;;;22.98;14.02;;;26.40;99.90;;;;;;5070846;28;20278;-86
2021/06/03 10:48:39;;;;;;;18.65;12.93;;;25.80;99.90;;;;;;5057315;28;20220;-83
2021/06/03 10:51:08;;;;;;;20.00;13.80;;;25.80;99.90;;;;;;5073852;28;20192;-89
2021/06/03 10:53:41;;;;;;;18.38;13.85;;;25.50;99.90;;;;;;5090751;28;20185;-85
2021/06/03 10:56:08;;;;;;;20.23;14.60;;;26.40;99.90;;;;;;5089919;28;20681;-85
2021/06/03 10:58:39;;;;;;;17.95;12.80;;;27.40;99.90;;;;;;5092288;28;20225;-83
2021/06/03 11:01:10;;;;;;;19.88;13.40;;;28.10;99.90;;;;;;5089170;28;20648;-86
2021/06/03 11:03:38;;;;;;;18.65;13.13;;;28.10;99.90;;;;;;5087898;28;20216;-86
2021/06/03 11:06:34;;;;;;;20.25;13.82;;;27.60;99.90;;;;;;5104415;28;20189;-89
2021/06/03 11:09:06;;;;;;;19.15;12.77;;;27.60;99.90;;;;;;5079667;28;20196;-88
2021/06/03 11:11:46;;;;;;;18.88;12.88;;;27.00;99.90;;;;;;5089302;28;20563;-88
2021/06/03 11:14:17;;;;;;;24.48;15.05;;;26.80;99.90;;;;;;5089467;28;20584;-87
2021/06/03 11:16:45;;;;;;;18.38;13.98;;;26.90;99.90;;;;;;5088643;28;20255;-87
2021/06/03 11:19:16;;;;;;;19.27;13.80;;;27.10;99.90;;;;;;5089106;28;21225;-87
2021/06/03 11:21:42;;;;;;;26.15;13.52;;;27.10;99.90;;;;;;5072063;28;20579;-86
2021/06/03 11:24:27;;;;;;;20.33;13.95;;;27.00;99.90;;;;;;5090162;28;20302;-86
2021/06/03 11:26:58;;;;;;;21.88;15.55;;;26.90;99.90;;;;;;5088960;28;20184;-88
2021/06/03 11:29:28;;;;;;;20.45;14.43;;;27.30;99.90;;;;;;5090900;28;20184;-88
2021/06/03 11:32:06;;;;;;;24.73;14.70;;;27.50;99.90;;;;;;5090066;28;20728;-86
2021/06/03 11:34:38;;;;;;;19.02;13.25;;;27.30;99.90;;;;;;5089973;28;20216;-87
2021/06/03 11:37:08;;;;;;;16.73;12.45;;;28.00;99.90;;;;;;5085404;28;20314;-87
2021/06/03 11:39:51;;;;;;;20.50;13.20;;;28.40;99.90;;;;;;5089692;28;20790;-88
2021/06/03 11:42:26;;;;;;;21.23;14.70;;;28.50;99.90;;;;;;5086298;28;20872;-87
2021/06/03 11:45:12;;;;;;;18.77;13.40;;;28.50;99.90;;;;;;5086527;28;20191;-87
2021/06/03 11:47:38;;;;;;;21.08;14.15;;;28.60;99.90;;;;;;5089354;28;20180;-87
2021/06/03 11:50:14;;;;;;;22.52;14.40;;;28.70;99.90;;;;;;5074929;28;20716;-86
2021/06/03 11:52:52;;;;;;;19.27;13.13;;;28.90;99.90;;;;;;5076792;28;20236;-87
2021/06/03 11:55:35;;;;;;;18.88;13.95;;;29.20;99.90;;;;;;5074067;28;20217;-87
2021/06/03 11:58:19;;;;;;;21.67;13.95;;;29.80;99.90;;;;;;5077794;28;20213;-89
2021/06/03 12:00:49;;;;;;;19.70;13.98;;;30.00;99.90;;;;;;5074536;28;20216;-89
2021/06/03 12:03:44;;;;;;;24.20;14.40;;;29.30;99.90;;;;;;5074331;28;20624;-89
2021/06/03 12:06:13;;;;;;;21.00;15.55;;;28.50;99.90;;;;;;5076423;28;20570;-88
2021/06/03 12:08:47;;;;;;;21.23;14.90;;;27.90;99.90;;;;;;5078173;28;20180;-89
2021/06/03 12:11:42;;;;;;;25.83;14.82;;;27.60;99.90;;;;;;5083661;28;20247;-90
2021/06/03 12:14:11;;;;;;;21.65;15.18;;;27.90;99.90;;;;;;5074944;28;20222;-89
2021/06/03 12:16:38;;;;;;;19.70;14.32;;;28.50;99.90;;;;;;5075360;28;20235;-89
2021/06/03 12:19:14;;;;;;;21.95;14.88;;;28.60;99.90;;;;;;5076056;28;20224;-90
2021/06/03 12:21:42;;;;;;;21.52;14.70;;;28.70;99.90;;;;;;5074942;28;20272;-90
2021/06/03 12:24:08;;;;;;;20.27;14.50;;;28.80;99.90;;;;;;5076859;28;20218;-90
2021/06/03 12:26:41;;;;;;;17.90;12.95;;;28.70;99.90;;;;;;5060252;28;20201;-90
2021/06/03 12:29:27;;;;;;;14.85;12.07;;;28.80;99.90;;;;;;5075770;28;20208;-90
2021/06/03 12:31:52;;;;;;;14.63;10.35;;;28.80;99.90;;;;;;5073270;28;20213;-89
2021/06/03 12:34:22;;;;;;;12.23;9.30;;;28.40;99.90;;;;;;5050263;28;20279;-90
2021/06/03 12:36:48;;;;;;;12.98;10.00;;;28.20;99.90;;;;;;5074793;28;20228;-90
2021/06/03 12:39:15;;;;;;;15.45;10.00;;;27.80;99.90;;;;;;5074350;28;20301;-89
2021/06/03 12:41:44;;;;;;;16.85;13.38;;;28.20;99.90;;;;;;5061150;28;20244;-89
2021/06/03 12:44:17;;;;;;;21.42;13.95;;;28.30;99.90;;;;;;5071759;28;20698;-90
2021/06/03 12:46:45;;;;;;;24.65;16.25;;;27.60;99.90;;;;;;5074476;28;20567;-89